createdAt,value
2017-10-03T00:00:51.995Z,89.10
2017-10-03T00:03:20.388Z,89.40
2017-10-03T00:05:47.933Z,89.40
2017-10-03T00:08:16.307Z,89.10
2017-10-03T00:10:43.964Z,89.10
2017-10-03T00:13:11.543Z,89.30
2017-10-03T00:15:39.191Z,89.30
2017-10-03T00:18:07.547Z,90.10
2017-10-03T00:20:35.090Z,90.10
2017-10-03T00:23:02.726Z,90.10
2017-10-03T00:25:30.296Z,90.10
2017-10-03T00:27:57.913Z,89.20
2017-10-03T00:30:26.255Z,90.20
2017-10-03T00:32:53.798Z,90.20
2017-10-03T00:35:21.387Z,90.80
2017-10-03T00:37:48.940Z,90.90
2017-10-03T00:40:16.855Z,91.50
2017-10-03T00:42:44.474Z,92.10
2017-10-03T00:45:12.167Z,91.80
2017-10-03T00:47:39.836Z,91.80
2017-10-03T00:50:07.403Z,92.20
2017-10-03T00:52:35.018Z,92.60
2017-10-03T00:55:02.608Z,92.90
2017-10-03T00:57:30.155Z,93.10
2017-10-03T00:59:57.750Z,93.10
2017-10-03T01:02:25.304Z,92.90
2017-10-03T01:04:53.191Z,93.10
2017-10-03T01:07:20.755Z,93.30
2017-10-03T01:09:48.349Z,93.50
2017-10-03T01:12:15.945Z,93.50
2017-10-03T01:14:43.486Z,93.80
2017-10-03T01:17:11.113Z,93.50
2017-10-03T01:19:38.663Z,93.50
2017-10-03T01:22:06.237Z,93.50
2017-10-03T01:24:33.922Z,93.50
2017-10-03T01:27:02.264Z,93.40
2017-10-03T01:29:30.143Z,93.40
2017-10-03T01:31:58.676Z,93.60
2017-10-03T01:34:26.616Z,93.60
2017-10-03T01:36:54.959Z,93.60
2017-10-03T01:39:22.530Z,93.60
2017-10-03T01:41:50.409Z,93.80
2017-10-03T01:44:18.725Z,93.50
2017-10-03T01:46:46.293Z,93.50
2017-10-03T01:49:13.910Z,93.80
2017-10-03T01:51:42.267Z,93.90
2017-10-03T01:54:10.024Z,93.90
2017-10-03T01:56:37.574Z,94.20
2017-10-03T01:59:05.148Z,94.30
2017-10-03T02:01:32.766Z,94.10
2017-10-03T02:04:00.858Z,94.20
2017-10-03T02:06:28.830Z,94.20
2017-10-03T02:08:57.659Z,94.10
2017-10-03T02:11:25.527Z,94.00
2017-10-03T02:13:53.122Z,93.90
2017-10-03T02:16:20.670Z,93.70
2017-10-03T02:18:48.348Z,93.90
2017-10-03T02:21:15.905Z,94.10
2017-10-03T02:23:43.483Z,94.20
2017-10-03T02:26:11.125Z,94.00
2017-10-03T02:28:38.732Z,94.00
2017-10-03T02:31:06.328Z,94.00
2017-10-03T02:33:33.884Z,94.00
2017-10-03T02:36:02.642Z,94.00
2017-10-03T02:38:30.243Z,93.90
2017-10-03T02:40:57.870Z,94.10
2017-10-03T02:43:25.739Z,94.10
2017-10-03T02:45:53.387Z,94.10
2017-10-03T02:48:20.981Z,94.00
2017-10-03T02:50:49.397Z,94.40
2017-10-03T02:53:16.963Z,94.40
2017-10-03T02:55:44.574Z,94.50
2017-10-03T02:58:12.224Z,94.50
2017-10-03T03:00:40.564Z,94.50
2017-10-03T03:03:08.175Z,94.50
2017-10-03T03:05:35.769Z,94.20
2017-10-03T03:08:03.909Z,94.30
2017-10-03T03:10:32.280Z,94.30
2017-10-03T03:13:00.606Z,94.40
2017-10-03T03:15:28.951Z,94.50
2017-10-03T03:17:56.547Z,94.20
2017-10-03T03:20:24.197Z,94.30
2017-10-03T03:22:51.759Z,94.30
2017-10-03T03:25:19.327Z,94.30
2017-10-03T03:27:47.703Z,94.50
2017-10-03T03:30:15.272Z,94.60
2017-10-03T03:32:43.158Z,94.50
2017-10-03T03:35:10.733Z,94.50
2017-10-03T03:37:38.434Z,94.50
2017-10-03T03:40:06.035Z,94.60
2017-10-03T03:42:33.627Z,94.60
2017-10-03T03:45:02.035Z,94.50
2017-10-03T03:47:29.626Z,94.50
2017-10-03T03:49:57.236Z,94.40
2017-10-03T03:52:25.583Z,94.70
2017-10-03T03:54:53.182Z,94.40
2017-10-03T03:57:21.195Z,94.60
2017-10-03T03:59:48.775Z,94.60
2017-10-03T04:02:16.359Z,94.70
2017-10-03T04:04:44.781Z,94.60
2017-10-03T04:07:13.143Z,94.50
2017-10-03T04:09:40.793Z,94.50
2017-10-03T04:12:10.055Z,94.60
2017-10-03T04:14:37.616Z,94.60
2017-10-03T04:17:05.201Z,94.10
2017-10-03T04:19:32.778Z,94.50
2017-10-03T04:22:00.389Z,94.30
2017-10-03T04:24:27.940Z,94.60
2017-10-03T04:26:55.522Z,94.60
2017-10-03T04:29:23.111Z,94.50
2017-10-03T04:31:50.696Z,94.50
2017-10-03T04:34:18.285Z,94.70
2017-10-03T04:36:46.506Z,94.60
2017-10-03T04:39:14.142Z,94.50
2017-10-03T04:41:42.497Z,94.70
2017-10-03T04:44:10.075Z,94.70
2017-10-03T04:46:38.483Z,94.60
2017-10-03T04:49:06.522Z,94.60
2017-10-03T04:51:34.861Z,94.60
2017-10-03T04:54:02.496Z,94.50
2017-10-03T04:56:31.010Z,94.50
2017-10-03T04:58:59.092Z,94.50
2017-10-03T05:01:26.685Z,94.50
2017-10-03T05:03:55.138Z,94.40
2017-10-03T05:06:22.724Z,94.40
2017-10-03T05:08:51.454Z,94.90
2017-10-03T05:11:20.256Z,94.90
2017-10-03T05:13:47.831Z,94.80
2017-10-03T05:16:16.064Z,94.80
2017-10-03T05:18:43.715Z,94.80
2017-10-03T05:21:11.392Z,95.00
2017-10-03T05:23:38.996Z,94.80
2017-10-03T05:26:07.184Z,95.10
2017-10-03T05:28:34.742Z,94.90
2017-10-03T05:31:03.122Z,95.10
2017-10-03T05:33:32.020Z,95.10
2017-10-03T05:35:59.982Z,95.10
2017-10-03T05:38:28.310Z,95.00
2017-10-03T05:40:56.459Z,95.00
2017-10-03T05:43:24.062Z,94.80
2017-10-03T05:45:51.602Z,95.10
2017-10-03T05:48:19.693Z,95.20
2017-10-03T05:50:47.253Z,95.10
2017-10-03T05:53:14.823Z,95.10
2017-10-03T05:55:42.479Z,95.00
2017-10-03T05:58:10.056Z,95.10
2017-10-03T06:00:37.666Z,95.20
2017-10-03T06:03:05.219Z,95.20
2017-10-03T06:05:32.806Z,95.00
2017-10-03T06:08:00.995Z,95.10
2017-10-03T06:10:29.306Z,95.00
2017-10-03T06:12:57.726Z,95.10
2017-10-03T06:15:25.292Z,95.20
2017-10-03T06:17:52.827Z,95.20
2017-10-03T06:20:20.443Z,95.20
2017-10-03T06:22:47.998Z,94.90
2017-10-03T06:25:15.609Z,95.00
2017-10-03T06:27:43.227Z,95.40
2017-10-03T06:30:10.803Z,95.00
2017-10-03T06:32:39.509Z,95.20
2017-10-03T06:35:07.076Z,95.20
2017-10-03T06:37:34.691Z,95.20
2017-10-03T06:40:02.247Z,95.10
2017-10-03T06:42:29.808Z,95.00
2017-10-03T06:44:57.494Z,94.90
2017-10-03T06:47:25.061Z,94.80
2017-10-03T06:49:52.722Z,95.00
2017-10-03T06:52:20.287Z,95.00
2017-10-03T06:54:47.875Z,95.00
2017-10-03T06:57:15.474Z,94.90
2017-10-03T06:59:43.169Z,95.00
2017-10-03T07:02:10.782Z,95.10
2017-10-03T07:04:38.378Z,95.00
2017-10-03T07:07:05.951Z,94.80
2017-10-03T07:09:33.584Z,95.00
2017-10-03T07:12:01.194Z,94.90
2017-10-03T07:14:28.824Z,95.20
2017-10-03T07:16:57.385Z,94.90
2017-10-03T07:19:24.962Z,94.70
2017-10-03T07:21:52.577Z,94.80
2017-10-03T07:24:20.176Z,94.90
2017-10-03T07:26:48.841Z,94.90
2017-10-03T07:29:17.290Z,94.90
2017-10-03T07:31:44.863Z,95.10
2017-10-03T07:34:12.470Z,94.90
2017-10-03T07:36:40.787Z,95.00
2017-10-03T07:39:09.408Z,95.00
2017-10-03T07:41:37.003Z,95.20
2017-10-03T07:44:04.563Z,95.10
2017-10-03T07:46:33.103Z,95.00
2017-10-03T07:49:00.711Z,94.90
2017-10-03T07:51:28.342Z,94.80
2017-10-03T07:53:56.669Z,94.40
2017-10-03T07:56:24.228Z,94.40
2017-10-03T07:58:51.803Z,94.60
2017-10-03T08:01:19.418Z,94.70
2017-10-03T08:03:47.205Z,94.70
2017-10-03T08:06:14.776Z,94.80
2017-10-03T08:08:43.040Z,94.50
2017-10-03T08:11:10.712Z,94.30
2017-10-03T08:13:38.274Z,94.40
2017-10-03T08:16:06.190Z,94.20
2017-10-03T08:18:33.849Z,94.00
2017-10-03T08:21:02.207Z,94.20
2017-10-03T08:23:29.891Z,94.00
2017-10-03T08:25:57.515Z,94.30
2017-10-03T08:28:25.509Z,94.70
2017-10-03T08:30:53.980Z,94.50
2017-10-03T08:33:21.550Z,94.60
2017-10-03T08:35:49.276Z,94.70
2017-10-03T08:38:16.846Z,94.90
2017-10-03T08:40:44.508Z,94.50
2017-10-03T08:43:12.609Z,94.30
2017-10-03T08:45:40.194Z,94.60
2017-10-03T08:48:07.816Z,94.90
2017-10-03T08:50:35.391Z,94.90
2017-10-03T08:53:03.344Z,94.80
2017-10-03T08:55:31.035Z,94.50
2017-10-03T08:57:59.418Z,94.60
2017-10-03T09:00:27.053Z,94.60
2017-10-03T09:02:54.669Z,94.50
2017-10-03T09:05:22.670Z,94.40
2017-10-03T09:07:50.269Z,94.80
2017-10-03T09:10:18.610Z,94.60
2017-10-03T09:12:46.251Z,94.60
2017-10-03T09:15:13.832Z,94.60
2017-10-03T09:17:41.444Z,94.60
2017-10-03T09:20:09.024Z,94.50
2017-10-03T09:22:36.612Z,94.40
2017-10-03T09:25:04.278Z,94.30
2017-10-03T09:27:31.840Z,94.50
2017-10-03T09:29:59.479Z,94.40
2017-10-03T09:32:27.067Z,94.60
2017-10-03T09:34:54.687Z,94.50
2017-10-03T09:37:22.274Z,94.60
2017-10-03T09:39:49.919Z,94.40
2017-10-03T09:42:17.527Z,94.60
2017-10-03T09:44:45.867Z,94.70
2017-10-03T09:47:13.414Z,94.70
2017-10-03T09:49:41.039Z,94.70
2017-10-03T09:52:09.413Z,94.20
2017-10-03T09:54:37.799Z,94.40
2017-10-03T09:57:06.123Z,94.20
2017-10-03T09:59:34.284Z,94.20
2017-10-03T10:02:01.898Z,94.40
2017-10-03T10:04:29.544Z,94.50
2017-10-03T10:06:57.155Z,94.40
2017-10-03T10:09:24.745Z,93.90
2017-10-03T10:11:52.323Z,93.90
2017-10-03T10:14:19.979Z,94.10
2017-10-03T10:16:47.531Z,94.10
2017-10-03T10:19:15.542Z,94.00
2017-10-03T10:21:43.111Z,93.60
2017-10-03T10:24:10.716Z,93.50
2017-10-03T10:26:38.364Z,93.70
2017-10-03T10:29:06.004Z,93.80
2017-10-03T10:31:33.635Z,93.50
2017-10-03T10:34:02.165Z,92.30
2017-10-03T10:36:29.743Z,92.20
2017-10-03T10:38:57.368Z,92.70
2017-10-03T10:41:24.952Z,92.90
2017-10-03T10:43:52.560Z,92.80
2017-10-03T10:46:20.134Z,92.90
2017-10-03T10:48:48.438Z,92.10
2017-10-03T10:51:16.021Z,92.20
2017-10-03T10:53:43.647Z,92.20
2017-10-03T10:56:12.139Z,92.60
2017-10-03T10:58:39.713Z,92.30
2017-10-03T11:01:07.667Z,92.30
2017-10-03T11:03:35.347Z,92.30
2017-10-03T11:06:03.602Z,91.00
2017-10-03T11:08:31.533Z,92.10
2017-10-03T11:10:59.850Z,91.30
2017-10-03T11:13:27.803Z,91.30
2017-10-03T11:15:55.455Z,91.60
2017-10-03T11:18:23.027Z,91.60
2017-10-03T11:20:50.666Z,91.10
2017-10-03T11:23:30.063Z,91.30
2017-10-03T11:25:57.670Z,91.90
2017-10-03T11:28:25.244Z,91.50
2017-10-03T11:30:52.815Z,91.30
2017-10-03T11:33:20.441Z,92.00
2017-10-03T11:35:48.813Z,92.40
2017-10-03T11:38:17.278Z,91.80
2017-10-03T11:40:44.850Z,91.80
2017-10-03T11:43:12.468Z,92.20
2017-10-03T11:45:40.077Z,91.80
2017-10-03T11:48:08.490Z,91.80
2017-10-03T11:50:36.122Z,91.70
2017-10-03T11:53:03.722Z,91.90
2017-10-03T11:55:31.335Z,91.60
2017-10-03T11:57:59.777Z,91.10
2017-10-03T12:00:27.449Z,91.10
2017-10-03T12:02:55.083Z,90.60
2017-10-03T12:05:22.680Z,91.00
2017-10-03T12:07:50.264Z,90.80
2017-10-03T12:10:18.672Z,91.40
2017-10-03T12:12:46.260Z,91.40
2017-10-03T12:15:13.875Z,91.30
2017-10-03T12:17:41.448Z,91.80
2017-10-03T12:20:09.183Z,92.20
2017-10-03T12:22:37.618Z,91.90
2017-10-03T12:25:05.228Z,91.80
2017-10-03T12:27:32.806Z,92.20
2017-10-03T12:30:00.459Z,91.30
2017-10-03T12:32:28.054Z,91.30
2017-10-03T12:34:55.675Z,90.70
2017-10-03T12:37:23.392Z,91.10
2017-10-03T12:39:51.228Z,91.40
2017-10-03T12:42:18.799Z,91.80
2017-10-03T12:44:46.457Z,91.80
2017-10-03T12:47:14.240Z,91.40
2017-10-03T12:49:41.863Z,91.20
2017-10-03T12:52:09.482Z,90.70
2017-10-03T12:54:37.110Z,90.90
2017-10-03T12:57:04.710Z,91.00
2017-10-03T12:59:33.158Z,91.60
2017-10-03T13:02:01.483Z,91.60
2017-10-03T13:04:29.113Z,92.00
2017-10-03T13:06:57.695Z,92.20
2017-10-03T13:09:25.357Z,92.00
2017-10-03T13:11:52.930Z,92.20
2017-10-03T13:14:21.379Z,92.80
2017-10-03T13:16:48.942Z,92.70
2017-10-03T13:19:16.465Z,93.00
2017-10-03T13:21:44.097Z,93.00
2017-10-03T13:24:11.673Z,92.90
2017-10-03T13:26:40.050Z,92.20
2017-10-03T13:29:08.627Z,93.50
2017-10-03T13:31:36.258Z,94.20
2017-10-03T13:34:03.946Z,94.10
2017-10-03T13:36:32.608Z,93.70
2017-10-03T13:39:00.183Z,93.70
2017-10-03T13:41:27.822Z,93.70
2017-10-03T13:43:55.556Z,94.10
2017-10-03T13:46:23.140Z,94.10
2017-10-03T13:48:50.694Z,93.60
2017-10-03T13:51:18.324Z,93.70
2017-10-03T13:53:46.003Z,93.70
2017-10-03T13:56:13.649Z,93.60
2017-10-03T13:58:43.227Z,93.60
2017-10-03T14:01:11.558Z,93.90
2017-10-03T14:03:39.288Z,93.90
2017-10-03T14:06:06.921Z,93.90
2017-10-03T14:08:34.550Z,93.80
2017-10-03T14:11:02.161Z,94.00
2017-10-03T14:13:30.670Z,94.00
2017-10-03T14:15:58.273Z,94.00
2017-10-03T14:18:25.839Z,94.20
2017-10-03T14:20:53.763Z,94.20
2017-10-03T14:23:21.329Z,94.10
2017-10-03T14:25:49.020Z,94.00
2017-10-03T14:28:16.675Z,93.70
2017-10-03T14:30:44.330Z,93.90
2017-10-03T14:33:11.924Z,93.90
2017-10-03T14:35:40.400Z,93.80
2017-10-03T14:38:08.717Z,94.00
2017-10-03T14:40:37.119Z,94.00
2017-10-03T14:43:04.742Z,93.70
2017-10-03T14:45:32.380Z,93.70
2017-10-03T14:48:00.051Z,93.70
2017-10-03T14:50:28.022Z,93.80
2017-10-03T14:52:57.122Z,93.90
2017-10-03T14:55:24.713Z,93.80
2017-10-03T14:57:52.639Z,93.90
2017-10-03T15:00:21.030Z,93.80
2017-10-03T15:02:48.657Z,93.80
2017-10-03T15:05:16.687Z,93.90
2017-10-03T15:07:44.362Z,93.90
2017-10-03T15:10:12.423Z,93.90
2017-10-03T15:12:40.420Z,94.00
2017-10-03T15:15:10.007Z,93.90
2017-10-03T15:17:37.601Z,93.80
2017-10-03T15:20:05.408Z,94.00
2017-10-03T15:22:33.079Z,94.00
2017-10-03T15:25:00.628Z,94.10
2017-10-03T15:27:28.609Z,94.10
2017-10-03T15:29:56.284Z,94.00
2017-10-03T15:32:23.988Z,93.80
2017-10-03T15:34:52.118Z,93.70
2017-10-03T15:37:19.673Z,93.90
2017-10-03T15:39:48.215Z,93.70
2017-10-03T15:42:15.931Z,94.00
2017-10-03T15:44:43.534Z,93.80
2017-10-03T15:47:11.932Z,93.60
2017-10-03T15:49:39.681Z,93.60
2017-10-03T15:52:07.908Z,93.60
2017-10-03T15:54:35.476Z,93.70
2017-10-03T15:57:03.168Z,93.20
2017-10-03T15:59:31.512Z,92.60
2017-10-03T16:02:02.071Z,92.30
2017-10-03T16:04:29.808Z,92.00
2017-10-03T16:06:57.396Z,92.30
2017-10-03T16:09:25.784Z,92.20
2017-10-03T16:11:54.374Z,92.20
2017-10-03T16:14:22.721Z,92.00
2017-10-03T16:16:50.381Z,92.00
2017-10-03T16:19:18.080Z,91.90
2017-10-03T16:21:45.755Z,92.00
2017-10-03T16:24:13.350Z,92.40
2017-10-03T16:26:41.029Z,91.90
2017-10-03T16:29:08.644Z,92.00
2017-10-03T16:31:36.226Z,92.50
2017-10-03T16:34:03.896Z,92.90
2017-10-03T16:36:31.541Z,93.00
2017-10-03T16:38:59.128Z,93.30
2017-10-03T16:41:27.026Z,93.20
2017-10-03T16:43:54.695Z,93.30
2017-10-03T16:46:22.281Z,93.30
2017-10-03T16:48:50.662Z,92.90
2017-10-03T16:51:18.492Z,93.20
2017-10-03T16:53:46.080Z,93.10
2017-10-03T16:56:14.192Z,93.00
2017-10-03T16:58:41.811Z,93.30
2017-10-03T17:01:09.416Z,93.50
2017-10-03T17:03:37.074Z,93.30
2017-10-03T17:06:04.689Z,93.30
2017-10-03T17:08:32.332Z,93.40
2017-10-03T17:11:00.035Z,93.30
2017-10-03T17:13:27.615Z,93.30
2017-10-03T17:15:55.198Z,93.30
2017-10-03T17:18:23.254Z,93.30
2017-10-03T17:20:50.869Z,93.30
2017-10-03T17:23:18.441Z,93.30
2017-10-03T17:25:46.450Z,93.20
2017-10-03T17:28:14.056Z,93.20
2017-10-03T17:30:42.143Z,93.20
2017-10-03T17:33:09.832Z,93.20
2017-10-03T17:35:37.423Z,93.20
2017-10-03T17:38:05.060Z,93.20
2017-10-03T17:40:33.035Z,93.20
2017-10-03T17:43:00.665Z,93.20
2017-10-03T17:45:28.242Z,93.20
2017-10-03T17:47:55.856Z,93.20
2017-10-03T17:50:24.233Z,93.20
2017-10-03T17:52:51.831Z,93.20
2017-10-03T17:55:19.447Z,93.30
2017-10-03T17:57:47.776Z,93.50
2017-10-03T18:00:15.370Z,93.50
2017-10-03T18:02:42.986Z,93.70
2017-10-03T18:05:10.575Z,94.10
2017-10-03T18:07:38.296Z,94.30
2017-10-03T18:10:05.940Z,94.50
2017-10-03T18:12:34.343Z,95.00
2017-10-03T18:15:01.944Z,94.90
2017-10-03T18:17:29.583Z,95.00
2017-10-03T18:19:57.250Z,95.20
2017-10-03T18:22:24.939Z,94.80
2017-10-03T18:24:52.573Z,94.70
2017-10-03T18:27:21.031Z,94.90
2017-10-03T18:29:48.614Z,94.80
2017-10-03T18:32:16.508Z,94.50
2017-10-03T18:34:44.270Z,94.60
2017-10-03T18:37:11.867Z,94.50
2017-10-03T18:39:44.650Z,94.60
2017-10-03T18:42:12.209Z,94.60
2017-10-03T18:44:40.454Z,94.70
2017-10-03T18:47:08.139Z,94.60
2017-10-03T18:49:36.567Z,94.70
2017-10-03T18:52:04.194Z,94.70
2017-10-03T18:54:32.607Z,94.60
2017-10-03T18:57:00.167Z,94.60
2017-10-03T18:59:27.800Z,94.30
2017-10-03T19:01:55.431Z,94.20
2017-10-03T19:04:23.846Z,93.90
2017-10-03T19:06:51.555Z,93.90
2017-10-03T19:09:19.208Z,94.00
2017-10-03T19:11:46.804Z,94.10
2017-10-03T19:14:14.403Z,94.00
2017-10-03T19:16:42.386Z,94.00
2017-10-03T19:19:09.971Z,94.00
2017-10-03T19:21:37.547Z,94.00
2017-10-03T19:24:06.074Z,94.00
2017-10-03T19:26:33.663Z,94.00
2017-10-03T19:29:01.212Z,94.00
2017-10-03T19:31:28.873Z,93.80
2017-10-03T19:33:56.453Z,93.90
2017-10-03T19:36:24.035Z,94.00
2017-10-03T19:38:51.963Z,94.10
2017-10-03T19:41:19.519Z,94.00
2017-10-03T19:43:47.073Z,93.90
2017-10-03T19:46:14.720Z,94.10
2017-10-03T19:48:42.377Z,94.40
2017-10-03T19:51:09.957Z,94.10
2017-10-03T19:53:38.577Z,93.90
2017-10-03T19:56:06.970Z,94.20
2017-10-03T19:58:34.519Z,94.20
2017-10-03T20:01:02.927Z,94.00
2017-10-03T20:03:31.228Z,94.00
2017-10-03T20:05:58.787Z,93.80
2017-10-03T20:08:26.406Z,93.80
2017-10-03T20:10:54.740Z,93.70
2017-10-03T20:13:22.304Z,93.70
2017-10-03T20:15:49.927Z,93.70
2017-10-03T20:18:17.530Z,93.70
2017-10-03T20:20:45.298Z,93.70
2017-10-03T20:23:13.869Z,93.60
2017-10-03T20:25:41.519Z,93.80
2017-10-03T20:28:09.200Z,93.60
2017-10-03T20:30:36.830Z,93.50
2017-10-03T20:33:05.290Z,93.40
2017-10-03T20:35:32.875Z,93.40
2017-10-03T20:38:00.516Z,93.50
2017-10-03T20:40:28.631Z,93.60
2017-10-03T20:42:56.296Z,93.80
2017-10-03T20:45:24.264Z,94.00
2017-10-03T20:47:51.958Z,94.20
2017-10-03T20:50:20.277Z,94.30
2017-10-03T20:52:47.922Z,94.20
2017-10-03T20:55:15.550Z,94.20
2017-10-03T20:57:43.915Z,94.30
2017-10-03T21:00:11.538Z,94.30
2017-10-03T21:02:39.111Z,94.30
2017-10-03T21:05:06.807Z,94.40
2017-10-03T21:07:34.420Z,94.40
2017-10-03T21:10:02.031Z,94.40
2017-10-03T21:12:30.363Z,94.40
2017-10-03T21:14:57.969Z,94.40
2017-10-03T21:17:26.335Z,94.60
2017-10-03T21:19:53.924Z,94.30
2017-10-03T21:22:22.539Z,94.30
2017-10-03T21:24:50.806Z,94.30
2017-10-03T21:27:18.378Z,94.30
2017-10-03T21:29:46.019Z,94.30
2017-10-03T21:32:13.620Z,94.20
2017-10-03T21:34:41.179Z,94.20
2017-10-03T21:37:09.181Z,94.20
2017-10-03T21:39:37.512Z,94.20
2017-10-03T21:42:16.884Z,94.20
2017-10-03T21:44:45.256Z,94.00
2017-10-03T21:47:13.611Z,94.10
2017-10-03T21:49:41.605Z,94.00
2017-10-03T21:52:09.170Z,94.10
2017-10-03T21:54:37.560Z,94.00
2017-10-03T21:57:06.178Z,94.20
2017-10-03T21:59:33.741Z,94.10
2017-10-03T22:02:01.315Z,94.10
2017-10-03T22:04:28.924Z,94.00
2017-10-03T22:06:57.381Z,93.80
2017-10-03T22:09:24.963Z,93.90
2017-10-03T22:11:53.367Z,93.60
2017-10-03T22:14:20.932Z,93.50
2017-10-03T22:16:48.505Z,93.50
2017-10-03T22:19:16.530Z,93.60
2017-10-03T22:21:44.082Z,93.70
2017-10-03T22:24:11.688Z,93.70
2017-10-03T22:26:39.290Z,93.70
2017-10-03T22:29:06.846Z,93.80
2017-10-03T22:31:34.402Z,93.90
2017-10-03T22:34:02.040Z,93.80
2017-10-03T22:36:29.618Z,93.80
2017-10-03T22:38:57.215Z,93.90
2017-10-03T22:41:25.131Z,93.80
2017-10-03T22:43:52.697Z,93.90
2017-10-03T22:46:20.559Z,94.00
2017-10-03T22:48:48.231Z,93.90
2017-10-03T22:51:21.447Z,93.80
2017-10-03T22:53:49.405Z,93.90
2017-10-03T22:56:16.982Z,94.00
2017-10-03T22:58:44.518Z,93.90
2017-10-03T23:01:12.885Z,93.60
2017-10-03T23:03:40.421Z,93.60
2017-10-03T23:06:07.984Z,93.80
2017-10-03T23:08:35.578Z,93.80
2017-10-03T23:11:03.135Z,93.70
2017-10-03T23:13:30.676Z,93.50
2017-10-03T23:15:59.046Z,94.00
2017-10-03T23:18:26.590Z,93.80
2017-10-03T23:20:54.126Z,93.60
2017-10-03T23:23:21.748Z,93.40
2017-10-03T23:25:50.072Z,93.20
2017-10-03T23:28:17.618Z,93.20
2017-10-03T23:30:45.220Z,93.20
2017-10-03T23:33:12.784Z,93.20
2017-10-03T23:35:41.094Z,93.10
2017-10-03T23:38:08.699Z,93.10
2017-10-03T23:40:36.242Z,93.00
2017-10-03T23:43:03.794Z,93.10
2017-10-03T23:45:31.678Z,93.10
2017-10-03T23:47:59.316Z,93.10
2017-10-03T23:50:26.858Z,93.10
2017-10-03T23:52:54.455Z,93.20
2017-10-03T23:55:22.004Z,93.30
2017-10-03T23:57:49.552Z,93.30
